Time;durP1;ratioP1;P1;durP2;ratioP2;P2;SDS_P1;SDS_P2;PMS_P1;PMS_P2;Temp;Humidity;BMP_temperature;BMP_pressure;BME280_temperature;BME280_humidity;BME280_pressure;Samples;Min_cycle;Max_cycle;Signal;HPM_P1;HPM_P2
2022/05/13 00:00:26;;;;;;;19.47;15.33;;;;;;;-142.08;100.00;71646.13;5015722;28;20265;-74
2022/05/13 00:04:09;;;;;;;17.63;14.80;;;;;;;-142.08;100.00;71646.13;5006787;28;20249;-73
2022/05/13 00:07:52;;;;;;;21.17;15.20;;;;;;;-142.08;100.00;71646.13;5015665;28;20310;-73
2022/05/13 00:11:35;;;;;;;20.90;14.30;;;;;;;-142.08;100.00;71646.13;5013142;28;20210;-73
2022/05/13 00:15:19;;;;;;;18.90;13.93;;;;;;;-142.08;100.00;71646.13;5028374;28;20666;-72
2022/05/13 00:19:05;;;;;;;19.37;14.47;;;;;;;-142.08;100.00;71646.13;5006757;28;20277;-72
2022/05/13 00:22:50;;;;;;;21.57;14.53;;;;;;;-142.08;100.00;71646.13;5029171;28;20276;-72
2022/05/13 00:26:34;;;;;;;21.87;15.67;;;;;;;-142.08;100.00;71646.13;5025827;28;20254;-72
2022/05/13 00:30:16;;;;;;;21.37;14.67;;;;;;;-142.08;100.00;71646.13;5003595;28;20199;-72
2022/05/13 00:34:01;;;;;;;20.80;15.63;;;;;;;-142.08;100.00;71646.13;5014699;28;20234;-71
2022/05/13 00:37:44;;;;;;;19.63;15.03;;;;;;;-142.08;100.00;71646.13;5011353;28;20693;-71
2022/05/13 00:41:27;;;;;;;16.37;14.03;;;;;;;-142.08;100.00;71646.13;5020723;28;20238;-72
2022/05/13 00:45:13;;;;;;;16.33;13.43;;;;;;;-142.08;100.00;71646.13;5030856;28;20563;-71
2022/05/13 00:48:58;;;;;;;17.70;11.70;;;;;;;-142.08;100.00;71646.13;5030496;28;20229;-72
2022/05/13 00:52:45;;;;;;;13.90;10.57;;;;;;;-142.08;100.00;71646.13;5007378;28;20616;-71
2022/05/13 00:56:31;;;;;;;14.77;9.63;;;;;;;-142.08;100.00;71646.13;5029605;28;20250;-71
2022/05/13 01:00:16;;;;;;;12.33;9.43;;;;;;;-142.08;100.00;71646.13;5021118;28;20226;-71
2022/05/13 01:04:04;;;;;;;14.20;8.70;;;;;;;-142.08;100.00;71646.13;5023390;28;20276;-72
2022/05/13 01:07:50;;;;;;;12.37;8.83;;;;;;;-142.08;100.00;71646.13;5017233;28;20202;-71
2022/05/13 01:11:37;;;;;;;11.07;9.37;;;;;;;-142.08;100.00;71646.13;5007588;28;20194;-71
2022/05/13 01:15:27;;;;;;;9.87;8.87;;;;;;;-142.08;100.00;71646.13;5018647;28;20741;-71
2022/05/13 01:19:10;;;;;;;15.50;10.77;;;;;;;-142.08;100.00;71646.13;5010463;28;20394;-70
2022/05/13 01:22:55;;;;;;;12.73;8.60;;;;;;;-142.08;100.00;71646.13;5019757;28;20954;-71
2022/05/13 01:26:41;;;;;;;12.70;9.57;;;;;;;-142.08;100.00;71646.13;5005400;28;20210;-71
2022/05/13 01:30:25;;;;;;;15.40;10.33;;;;;;;-142.08;100.00;71646.13;5012497;28;20261;-70
2022/05/13 01:34:09;;;;;;;16.00;10.33;;;;;;;-142.08;100.00;71646.13;5021409;28;20206;-70
2022/05/13 01:37:52;;;;;;;14.33;10.63;;;;;;;-142.08;100.00;71646.13;5010370;28;20207;-70
2022/05/13 01:41:35;;;;;;;11.33;10.03;;;;;;;-142.08;100.00;71646.13;5003441;28;20238;-70
2022/05/13 01:45:18;;;;;;;12.90;10.93;;;;;;;-142.08;100.00;71646.13;5026400;28;20249;-70
2022/05/13 01:49:01;;;;;;;15.43;10.37;;;;;;;-142.08;100.00;71646.13;5009397;28;20276;-70
2022/05/13 01:52:44;;;;;;;18.10;10.70;;;;;;;-142.08;100.00;71646.13;5020217;28;20233;-70
2022/05/13 01:56:27;;;;;;;18.30;10.47;;;;;;;-142.08;100.00;71646.13;5009905;28;20203;-70
2022/05/13 01:59:33;;;;;;;11.03;9.73;;;;;;;19.91;55.97;94280.75;5027424;28;20237;-70
2022/05/13 02:07:24;;;;;;;15.70;11.17;;;;;;;-142.08;100.00;71646.13;5008109;28;20627;-70
2022/05/13 02:11:07;;;;;;;12.07;10.20;;;;;;;-142.08;100.00;71646.13;5021949;28;20233;-70
2022/05/13 02:14:50;;;;;;;12.20;9.37;;;;;;;-142.08;100.00;71646.13;5030551;28;20245;-70
2022/05/13 02:17:34;;;;;;;15.30;9.57;;;;;;;13.95;100.00;94260.25;5022588;28;20203;-69
2022/05/13 02:21:17;;;;;;;11.83;9.73;;;;;;;-142.08;100.00;71646.13;5010394;28;20218;-69
2022/05/13 02:24:45;;;;;;;10.13;9.13;;;;;;;;;;5018031;28;20630;-70
2022/05/13 02:27:30;;;;;;;9.13;7.90;;;;;;;14.05;100.00;94266.56;5005306;28;20233;-69
2022/05/13 02:30:14;;;;;;;9.13;7.67;;;;;;;14.00;100.00;94266.91;5026936;28;20202;-69
2022/05/13 02:32:58;;;;;;;8.50;7.60;;;;;;;14.02;100.00;94264.19;5029568;28;20202;-69
2022/05/13 02:35:42;;;;;;;8.83;7.07;;;;;;;14.08;100.00;94268.13;5003577;28;20679;-69
2022/05/13 02:38:27;;;;;;;10.57;8.10;;;;;;;14.00;100.00;94267.63;5012065;28;20290;-69
2022/05/13 02:41:11;;;;;;;8.23;7.00;;;;;;;14.00;100.00;94264.81;5025192;28;20343;-69
2022/05/13 02:43:56;;;;;;;10.83;7.00;;;;;;;14.04;100.00;94267.88;5013394;28;20214;-69
2022/05/13 02:46:41;;;;;;;8.20;6.30;;;;;;;14.04;100.00;94267.88;5021653;28;20302;-69
2022/05/13 02:49:26;;;;;;;9.73;7.10;;;;;;;13.94;100.00;94264.44;5021572;28;20258;-69
2022/05/13 02:52:11;;;;;;;11.37;6.83;;;;;;;13.96;100.00;94267.38;5019872;28;20634;-69
2022/05/13 02:54:55;;;;;;;10.77;8.00;;;;;;;13.90;100.00;94269.78;5012952;28;20590;-69
2022/05/13 02:57:39;;;;;;;7.87;7.07;;;;;;;13.88;100.00;94258.41;5028498;28;20202;-69
2022/05/13 03:00:23;;;;;;;8.97;7.43;;;;;;;13.93;100.00;94243.25;5019445;28;20246;-72
2022/05/13 03:03:08;;;;;;;8.53;7.07;;;;;;;13.85;100.00;94256.78;5010696;28;20214;-72
2022/05/13 03:05:52;;;;;;;10.97;7.63;;;;;;;13.77;100.00;94242.19;5030697;28;20197;-72
2022/05/13 03:08:36;;;;;;;8.60;7.80;;;;;;;13.70;100.00;94240.34;5030070;28;20212;-72
2022/05/13 03:11:21;;;;;;;10.03;7.77;;;;;;;13.67;100.00;94231.00;5030505;28;20565;-72
2022/05/13 03:14:05;;;;;;;11.43;7.97;;;;;;;13.61;100.00;94229.88;5026933;28;20250;-73
2022/05/13 03:16:49;;;;;;;13.40;9.07;;;;;;;13.60;100.00;94231.22;5012622;28;20265;-72
2022/05/13 03:19:35;;;;;;;13.87;10.67;;;;;;;13.61;100.00;94221.44;5019835;28;20302;-73
2022/05/13 03:22:19;;;;;;;9.43;8.47;;;;;;;13.60;100.00;94219.94;5013307;28;20722;-73
2022/05/13 03:25:04;;;;;;;12.23;8.87;;;;;;;13.61;100.00;94215.81;5020505;28;20658;-74
2022/05/13 03:27:48;;;;;;;12.40;9.40;;;;;;;13.53;100.00;94220.91;5024434;28;20236;-74
2022/05/13 03:30:32;;;;;;;11.50;9.40;;;;;;;13.49;100.00;94215.00;5011696;28;20222;-74
2022/05/13 03:33:18;;;;;;;12.70;10.30;;;;;;;13.47;100.00;94206.44;5008844;28;20286;-74
2022/05/13 03:36:02;;;;;;;11.90;9.87;;;;;;;13.45;100.00;94203.50;4994797;28;20254;-74
2022/05/13 03:38:47;;;;;;;11.77;9.33;;;;;;;13.44;100.00;94202.03;5020924;28;20569;-74
2022/05/13 03:41:31;;;;;;;11.63;9.97;;;;;;;13.43;100.00;94200.53;5020815;28;20599;-73
2022/05/13 03:44:15;;;;;;;11.47;10.10;;;;;;;13.38;100.00;94193.94;5015344;28;20198;-73
2022/05/13 03:47:00;;;;;;;14.80;10.97;;;;;;;13.35;100.00;94195.13;5001871;28;20263;-73
2022/05/13 03:49:44;;;;;;;12.63;10.10;;;;;;;13.35;100.00;94193.03;5022990;28;20195;-73
2022/05/13 03:52:28;;;;;;;15.73;11.17;;;;;;;13.39;100.00;94189.03;5012749;28;20345;-73
2022/05/13 03:55:12;;;;;;;12.77;11.00;;;;;;;13.41;100.00;94192.69;5007440;28;20238;-73
2022/05/13 03:57:57;;;;;;;16.57;10.90;;;;;;;13.47;100.00;94197.97;5016221;28;20201;-74
2022/05/13 04:00:43;;;;;;;13.40;9.83;;;;;;;13.54;100.00;94205.47;5030938;28;20268;-72
2022/05/13 04:03:27;;;;;;;15.13;10.03;;;;;;;13.57;100.00;94193.03;5029724;28;20206;-73
2022/05/13 04:09:14;;;;;;;11.23;9.70;;;;;;;13.65;100.00;94204.78;5029636;28;20213;-73
2022/05/13 04:18:04;;;;;;;11.10;9.60;;;;;;;13.63;100.00;94201.88;5018544;28;20264;-74
2022/05/13 04:20:48;;;;;;;10.33;8.00;;;;;;;13.66;100.00;94200.63;5006528;28;20268;-73
2022/05/13 04:23:35;;;;;;;9.07;8.10;;;;;;;13.78;100.00;94207.78;5019995;28;20218;-72
2022/05/13 04:26:20;;;;;;;8.70;7.30;;;;;;;13.77;100.00;94205.56;5031305;28;20574;-73
2022/05/13 04:29:05;;;;;;;10.10;8.00;;;;;;;13.81;100.00;94200.22;5009716;28;20207;-72
2022/05/13 04:31:49;;;;;;;8.30;6.80;;;;;;;13.87;100.00;94214.69;5027404;28;20573;-72
2022/05/13 04:34:33;;;;;;;8.73;7.50;;;;;;;13.84;100.00;94218.69;5010119;28;20350;-72
2022/05/13 04:37:17;;;;;;;11.57;7.30;;;;;;;13.90;100.00;94219.09;5004404;28;20253;-72
2022/05/13 04:40:01;;;;;;;9.00;6.43;;;;;;;13.97;100.00;94223.75;5010794;28;20250;-72
2022/05/13 04:42:51;;;;;;;7.33;6.57;;;;;;;13.94;100.00;94227.06;5022650;28;20214;-72
2022/05/13 04:45:36;;;;;;;7.93;6.00;;;;;;;14.05;100.00;94226.38;5023913;28;20248;-74
2022/05/13 04:48:22;;;;;;;8.30;6.03;;;;;;;14.15;100.00;94230.56;5028570;28;20272;-72
2022/05/13 04:51:06;;;;;;;8.20;5.70;;;;;;;14.14;100.00;94231.16;5000886;28;20202;-72
2022/05/13 04:53:53;;;;;;;7.13;4.80;;;;;;;14.10;100.00;94237.28;5021110;28;20206;-72
2022/05/13 04:56:39;;;;;;;8.83;5.50;;;;;;;14.25;100.00;94224.81;5012368;28;20202;-72
2022/05/13 04:59:23;;;;;;;5.97;5.13;;;;;;;14.34;100.00;94226.06;5030419;28;20226;-71
2022/05/13 05:02:07;;;;;;;6.63;5.43;;;;;;;14.26;100.00;94236.84;5005994;28;21602;-71
2022/05/13 05:04:52;;;;;;;6.50;5.33;;;;;;;14.32;100.00;94234.41;5025296;28;20690;-70
2022/05/13 05:07:36;;;;;;;8.87;5.23;;;;;;;14.39;100.00;94242.63;5025639;28;20666;-70
2022/05/13 05:10:21;;;;;;;9.30;4.60;;;;;;;14.43;100.00;94239.34;5012489;28;20197;-69
2022/05/13 05:13:08;;;;;;;8.17;5.03;;;;;;;14.43;100.00;94247.81;5028348;28;20202;-69
2022/05/13 05:15:53;;;;;;;8.70;4.70;;;;;;;14.51;100.00;94242.66;5010765;28;20215;-69
2022/05/13 05:18:39;;;;;;;4.83;4.33;;;;;;;14.54;100.00;94250.63;5010440;28;20214;-69
2022/05/13 05:21:23;;;;;;;6.40;4.83;;;;;;;14.75;100.00;94261.06;5013223;28;20266;-68
2022/05/13 05:24:07;;;;;;;9.07;4.27;;;;;;;14.72;100.00;94265.13;5013307;28;20928;-69
2022/05/13 05:26:51;;;;;;;6.90;4.87;;;;;;;14.86;100.00;94262.44;5023500;28;20572;-69
2022/05/13 05:29:36;;;;;;;4.87;4.13;;;;;;;14.75;100.00;94263.88;5006495;28;20198;-69
2022/05/13 05:32:21;;;;;;;5.97;4.23;;;;;;;15.00;100.00;94262.56;5025985;28;20198;-70
2022/05/13 05:35:08;;;;;;;6.93;4.20;;;;;;;14.83;100.00;94266.47;5010112;28;20202;-69
2022/05/13 05:37:52;;;;;;;7.97;4.10;;;;;;;14.63;100.00;94263.13;5030168;28;20198;-70
2022/05/13 05:40:37;;;;;;;7.10;4.10;;;;;;;14.85;100.00;94272.97;5013452;28;20593;-70
2022/05/13 05:43:22;;;;;;;7.07;4.47;;;;;;;15.09;100.00;94267.31;5012710;28;20334;-70
2022/05/13 05:46:06;;;;;;;5.70;4.57;;;;;;;15.18;100.00;94269.28;5027392;28;20202;-70
2022/05/13 05:48:50;;;;;;;6.97;4.10;;;;;;;15.27;100.00;94279.69;5032676;28;20283;-70
2022/05/13 05:51:34;;;;;;;4.53;3.73;;;;;;;15.48;100.00;94276.00;5013718;28;20282;-70
2022/05/13 05:57:22;;;;;;;4.90;3.80;;;;;;;15.98;100.00;94283.88;5015363;28;20213;-70
2022/05/13 06:00:07;;;;;;;8.97;3.90;;;;;;;15.72;100.00;94283.09;5002062;28;20281;-70
2022/05/13 06:02:52;;;;;;;6.10;3.90;;;;;;;15.82;100.00;94283.66;5024751;28;20568;-70
2022/05/13 06:05:37;;;;;;;4.60;3.70;;;;;;;15.97;100.00;94288.03;5025544;28;20724;-70
2022/05/13 06:08:21;;;;;;;5.50;4.30;;;;;;;16.06;100.00;94289.97;5030783;28;20197;-70
2022/05/13 06:11:06;;;;;;;8.70;3.93;;;;;;;16.06;100.00;94289.97;5029602;28;20197;-70
2022/05/13 06:13:54;;;;;;;5.87;3.57;;;;;;;15.92;100.00;94297.66;5017382;28;20682;-70
2022/05/13 06:16:39;;;;;;;5.13;4.53;;;;;;;16.09;100.00;94294.38;5033912;28;20730;-70
2022/05/13 06:19:23;;;;;;;4.90;3.93;;;;;;;16.45;100.00;94290.03;5012996;28;20644;-70
2022/05/13 06:22:08;;;;;;;6.03;4.63;;;;;;;16.63;100.00;94287.50;5032378;28;20272;-70
2022/05/13 06:24:52;;;;;;;8.53;4.63;;;;;;;16.71;100.00;94287.94;5026161;28;20201;-70
2022/05/13 06:27:37;;;;;;;4.63;4.07;;;;;;;17.15;100.00;94284.66;5033677;28;20213;-71
2022/05/13 06:30:26;;;;;;;3.30;3.00;;;;;;;17.22;100.00;94288.56;5023691;28;20274;-71
2022/05/13 06:33:10;;;;;;;6.17;3.53;;;;;;;17.15;100.00;94284.66;5011607;28;20695;-71
2022/05/13 06:35:55;;;;;;;5.30;3.63;;;;;;;17.45;100.00;94296.09;5005936;28;20843;-71
2022/05/13 06:38:39;;;;;;;4.00;3.60;;;;;;;17.74;100.00;94290.53;5020614;28;20249;-71
2022/05/13 06:41:24;;;;;;;5.13;3.53;;;;;;;17.76;100.00;94291.38;5015339;28;20245;-71
2022/05/13 06:44:09;;;;;;;5.93;3.67;;;;;;;17.30;100.00;94292.53;5008693;28;20563;-71
2022/05/13 06:46:53;;;;;;;4.23;3.77;;;;;;;17.35;100.00;94288.53;5023043;28;20948;-71
2022/05/13 06:49:36;;;;;;;3.87;3.43;;;;;;;17.47;100.00;94296.19;5021065;28;20190;-71
2022/05/13 06:52:21;;;;;;;4.40;3.67;;;;;;;17.91;100.00;94292.06;5007345;28;20265;-71
2022/05/13 06:55:06;;;;;;;3.10;2.80;;;;;;;18.29;100.00;94290.41;5027557;28;20194;-71
2022/05/13 06:57:51;;;;;;;7.93;3.47;;;;;;;19.01;95.17;94298.81;5031252;28;20288;-70
2022/05/13 07:00:35;;;;;;;4.20;3.20;;;;;;;18.62;93.04;94287.78;5024744;28;20227;-70
2022/05/13 07:03:20;;;;;;;5.87;3.60;;;;;;;18.66;92.93;94282.28;5029509;28;20198;-70
2022/05/13 07:06:04;;;;;;;6.33;3.37;;;;;;;18.64;93.32;94290.69;5019863;28;20698;-70
2022/05/13 07:08:52;;;;;;;10.00;3.27;;;;;;;19.01;98.90;94287.44;5021291;28;20291;-71
2022/05/13 07:11:36;;;;;;;5.47;3.00;;;;;;;19.20;96.98;94291.84;5023721;28;20253;-71
2022/05/13 07:14:21;;;;;;;6.03;2.93;;;;;;;19.31;90.80;94291.69;5029476;28;20210;-71
2022/05/13 07:17:05;;;;;;;3.53;3.15;;;;;;;19.88;87.83;94287.72;5018630;28;20595;-71
2022/05/13 07:19:49;;;;;;;5.18;3.33;;;;;;;19.98;88.18;94297.44;4996187;28;20269;-70
2022/05/13 07:22:34;;;;;;;4.10;3.20;;;;;;;20.23;89.77;94293.50;5025521;28;20244;-71
2022/05/13 07:25:18;;;;;;;4.85;2.95;;;;;;;19.23;88.81;94293.41;5017518;28;20202;-70
2022/05/13 07:28:03;;;;;;;3.95;2.95;;;;;;;20.16;86.69;94286.09;5031027;28;20210;-70
2022/05/13 07:30:48;;;;;;;3.58;2.70;;;;;;;20.42;81.11;94290.03;5020231;28;20330;-70
2022/05/13 07:33:32;;;;;;;4.10;2.30;;;;;;;19.91;82.96;94286.44;5029746;28;20193;-70
2022/05/13 07:36:16;;;;;;;2.80;2.60;;;;;;;20.34;79.28;94284.00;5013837;28;20245;-71
2022/05/13 07:42:07;;;;;;;6.80;3.38;;;;;;;19.90;82.03;94285.72;5023546;28;20269;-71
2022/05/13 07:44:52;;;;;;;3.97;2.85;;;;;;;20.16;81.65;94275.44;5027947;28;20264;-71
2022/05/13 07:47:38;;;;;;;5.38;2.53;;;;;;;20.57;79.14;94272.13;5016420;28;20198;-71
2022/05/13 07:50:23;;;;;;;4.47;2.90;;;;;;;20.76;77.86;94272.84;5001352;28;20249;-71
2022/05/13 07:53:08;;;;;;;4.60;3.22;;;;;;;20.58;75.28;94276.44;5022780;28;20210;-71
2022/05/13 07:55:53;;;;;;;4.97;3.40;;;;;;;20.58;74.90;94273.59;5026606;28;20280;-71
2022/05/13 07:58:37;;;;;;;5.17;3.47;;;;;;;19.72;79.92;94280.00;5004185;28;20217;-70
2022/05/13 08:01:21;;;;;;;6.00;3.77;;;;;;;19.67;78.24;94275.50;5030376;28;20209;-70
2022/05/13 08:04:05;;;;;;;4.37;3.50;;;;;;;18.96;81.75;94275.16;5022825;28;20234;-71
2022/05/13 08:06:50;;;;;;;4.70;3.33;;;;;;;19.41;80.55;94277.16;5023359;28;20202;-69
2022/05/13 08:09:34;;;;;;;4.13;3.60;;;;;;;19.30;82.96;94275.25;5029040;28;20245;-70
2022/05/13 08:12:19;;;;;;;10.43;3.70;;;;;;;19.40;81.19;94276.44;5022159;28;20218;-71
2022/05/13 08:15:04;;;;;;;6.50;3.87;;;;;;;19.37;81.70;94277.75;5009159;28;20234;-71
2022/05/13 08:17:48;;;;;;;6.00;3.40;;;;;;;19.38;82.48;94281.28;5020844;28;20442;-70
2022/05/13 08:20:33;;;;;;;5.67;3.90;;;;;;;19.30;81.79;94278.09;5028533;28;20231;-71
2022/05/13 08:23:18;;;;;;;4.40;3.93;;;;;;;19.45;81.89;94277.34;5030149;28;20916;-70
2022/05/13 08:26:02;;;;;;;4.97;3.97;;;;;;;19.49;82.64;94271.88;5030399;28;20675;-71
2022/05/13 08:28:46;;;;;;;5.57;4.10;;;;;;;19.73;82.29;94272.19;5028877;28;20239;-71
2022/05/13 08:31:30;;;;;;;5.13;4.00;;;;;;;19.58;82.15;94270.84;5008493;28;20193;-70
2022/05/13 08:34:16;;;;;;;8.83;5.00;;;;;;;19.46;95.23;94278.84;5010621;28;20202;-72
2022/05/13 08:37:00;;;;;;;6.43;4.83;;;;;;;18.77;98.15;94274.97;5022871;28;20635;-70
2022/05/13 08:39:44;;;;;;;5.80;5.20;;;;;;;18.50;100.00;94275.81;5013504;28;20269;-70
2022/05/13 08:42:39;;;;;;;10.50;6.60;;;;;;;18.48;100.00;94275.72;5015087;28;20253;-72
2022/05/13 08:45:24;;;;;;;8.43;6.53;;;;;;;18.24;100.00;94277.41;5004735;28;20205;-73
2022/05/13 08:48:13;;;;;;;8.13;6.20;;;;;;;18.00;100.00;94283.34;5008187;28;20205;-73
2022/05/13 08:51:21;;;;;;;7.57;6.67;;;;;;;17.86;100.00;94291.16;5010028;28;20223;-73
2022/05/13 08:54:05;;;;;;;7.80;7.00;;;;;;;17.88;100.00;94279.91;5024238;28;20574;-73
2022/05/13 08:56:54;;;;;;;8.30;6.07;;;;;;;17.60;100.00;94281.28;5008464;28;20250;-73
2022/05/13 08:59:52;;;;;;;7.47;6.53;;;;;;;17.56;100.00;94292.41;5027991;28;20330;-73
2022/05/13 09:02:40;;;;;;;7.40;6.70;;;;;;;17.11;100.00;94283.69;5012806;28;20257;-75
2022/05/13 09:05:40;;;;;;;10.00;6.80;;;;;;;17.02;100.00;94284.66;5027694;28;20217;-74
2022/05/13 09:08:24;;;;;;;6.73;5.83;;;;;;;16.48;100.00;94292.34;5021620;28;20253;-72
2022/05/13 09:11:25;;;;;;;7.77;5.43;;;;;;;16.58;100.00;94292.91;5028732;28;20198;-72
2022/05/13 09:14:31;;;;;;;6.80;5.57;;;;;;;16.65;100.00;94291.19;5022789;28;20283;-72
2022/05/13 09:17:35;;;;;;;14.53;6.00;;;;;;;16.72;100.00;94284.50;5026254;28;20234;-73
2022/05/13 09:20:24;;;;;;;7.50;6.67;;;;;;;17.02;100.00;94288.22;4998235;28;20288;-73
2022/05/13 09:23:11;;;;;;;10.07;5.80;;;;;;;16.93;100.00;94284.22;5007029;28;20257;-73
2022/05/13 09:25:58;;;;;;;6.03;5.03;;;;;;;17.55;100.00;94285.28;5027632;28;20682;-73
2022/05/13 09:29:21;;;;;;;6.40;5.73;;;;;;;17.81;100.00;94277.41;5027799;28;20616;-73
2022/05/13 09:32:12;;;;;;;5.80;5.27;;;;;;;17.70;100.00;94281.84;4937871;29;20240;-72
2022/05/13 09:35:12;;;;;;;7.27;4.57;;;;;;;18.04;100.00;94275.03;4943222;29;20244;-73
2022/05/13 09:37:56;;;;;;;6.47;4.10;;;;;;;18.46;100.00;94278.47;5026540;28;20197;-72
2022/05/13 09:40:40;;;;;;;4.03;3.20;;;;;;;18.90;100.00;94282.69;5032669;28;20221;-72
2022/05/13 09:43:42;;;;;;;4.57;3.80;;;;;;;20.36;96.80;94284.09;5014238;28;20219;-71
2022/05/13 09:46:34;;;;;;;5.28;3.80;;;;;;;21.13;93.86;94270.00;5011292;28;20733;-71
2022/05/13 09:49:36;;;;;;;3.92;3.22;;;;;;;21.32;90.15;94272.16;5021789;28;20194;-71
2022/05/13 09:52:32;;;;;;;4.32;3.47;;;;;;;21.64;86.17;94269.75;5033585;28;20197;-70
2022/05/13 09:55:37;;;;;;;3.85;2.97;;;;;;;20.78;85.47;94264.38;5030954;28;20206;-70
2022/05/13 09:58:29;;;;;;;3.40;3.10;;;;;;;20.05;86.88;94262.19;5009557;28;20198;-69
2022/05/13 10:01:13;;;;;;;6.03;3.70;;;;;;;19.97;90.61;94255.41;5023808;28;20234;-69
2022/05/13 10:04:25;;;;;;;5.07;3.63;;;;;;;19.09;92.10;94270.03;5020857;28;20211;-69
2022/05/13 10:07:15;;;;;;;6.63;3.83;;;;;;;18.28;98.64;94271.91;5025700;28;20678;-69
2022/05/13 10:16:21;;;;;;;4.53;3.87;;;;;;;18.74;90.90;94291.19;5022932;28;20218;-68
2022/05/13 10:19:26;;;;;;;6.00;3.30;;;;;;;18.43;91.81;94296.78;5023780;28;20190;-69
2022/05/13 10:22:26;;;;;;;6.37;3.40;;;;;;;18.01;91.22;94296.16;5023871;28;20609;-68
2022/05/13 10:25:16;;;;;;;5.37;4.00;;;;;;;17.97;93.71;94295.94;5012846;28;20438;-69
2022/05/13 10:28:14;;;;;;;8.70;3.27;;;;;;;17.59;92.34;94308.88;5026329;28;20206;-69
2022/05/13 10:31:19;;;;;;;5.93;3.63;;;;;;;17.79;91.67;94309.22;5026082;28;20718;-69
2022/05/13 10:34:14;;;;;;;3.70;3.40;;;;;;;17.67;90.04;94305.75;5020369;28;20210;-68
2022/05/13 10:37:11;;;;;;;4.70;3.47;;;;;;;17.63;90.29;94314.06;5018049;28;20214;-68
2022/05/13 10:40:02;;;;;;;8.17;4.10;;;;;;;17.31;92.11;94330.81;5010284;28;20268;-69
2022/05/13 10:43:08;;;;;;;5.73;3.73;;;;;;;17.17;93.96;94347.06;5017195;28;20583;-69
2022/05/13 10:45:52;;;;;;;2.57;2.17;;;;;;;16.08;100.00;94360.75;5024830;28;20205;-70
2022/05/13 10:48:36;;;;;;;16.67;2.80;;;;;;;15.05;100.00;94363.03;5031145;28;20182;-71
2022/05/13 10:51:46;;;;;;;3.27;2.00;;;;;;;14.51;100.00;94359.00;5016646;28;20214;-71
2022/05/13 10:54:43;;;;;;;5.03;1.90;;;;;;;14.58;100.00;94362.94;5013033;28;20202;-70
2022/05/13 10:57:34;;;;;;;4.43;1.70;;;;;;;14.65;100.00;94349.97;5001841;28;20211;-70
2022/05/13 11:00:22;;;;;;;2.43;1.83;;;;;;;14.90;100.00;94361.41;5029525;28;20226;-70
2022/05/13 11:03:12;;;;;;;4.20;2.03;;;;;;;14.93;100.00;94372.25;5024307;28;20210;-70
2022/05/13 11:06:16;;;;;;;6.17;1.97;;;;;;;14.66;100.00;94363.47;5025157;28;20205;-70
2022/05/13 11:09:12;;;;;;;1.87;1.50;;;;;;;15.00;100.00;94361.31;5020378;28;20202;-70
2022/05/13 11:12:08;;;;;;;2.40;1.60;;;;;;;14.96;100.00;94359.72;5011527;28;20250;-70
2022/05/13 11:14:59;;;;;;;4.60;1.70;;;;;;;15.05;100.00;94365.88;5007560;28;20214;-72
2022/05/13 11:18:21;;;;;;;4.03;2.27;;;;;;;14.73;100.00;94350.47;5023241;28;20585;-72
2022/05/13 11:21:38;;;;;;;3.77;2.00;;;;;;;15.07;100.00;94355.41;5017731;28;20229;-71
2022/05/13 11:28:19;;;;;;;1.30;1.20;;;;;;;14.70;100.00;94363.69;5031465;28;20198;-72
2022/05/13 11:31:40;;;;;;;7.00;1.60;;;;;;;14.50;100.00;94379.38;5016164;28;20691;-72
2022/05/13 11:34:39;;;;;;;2.57;1.40;;;;;;;14.72;100.00;94361.03;5023964;28;20211;-72
2022/05/13 11:37:29;;;;;;;2.10;1.30;;;;;;;14.63;100.00;94359.03;5029623;28;20214;-72
2022/05/13 11:40:45;;;;;;;1.73;1.63;;;;;;;14.83;100.00;94359.56;5002462;28;20289;-72
2022/05/13 11:43:50;;;;;;;4.13;1.50;;;;;;;15.26;100.00;94360.09;5014837;28;20618;-71
2022/05/13 11:46:55;;;;;;;3.03;1.43;;;;;;;15.51;100.00;94368.69;5005871;28;20674;-73
2022/05/13 11:49:43;;;;;;;2.13;1.30;;;;;;;15.29;100.00;94362.44;5024998;28;20193;-73
2022/05/13 11:52:46;;;;;;;1.87;1.00;;;;;;;15.09;100.00;94347.09;5015559;28;20206;-72
2022/05/13 11:55:42;;;;;;;1.40;1.30;;;;;;;15.34;100.00;94354.94;5013978;28;20713;-73
2022/05/13 11:58:44;;;;;;;1.17;1.07;;;;;;;15.41;100.00;94358.88;5024169;28;20202;-73
2022/05/13 12:01:37;;;;;;;1.43;1.33;;;;;;;15.89;100.00;94349.75;5030734;28;20209;-73
2022/05/13 12:04:21;;;;;;;1.60;1.30;;;;;;;15.85;100.00;94360.81;5025977;28;20580;-73
2022/05/13 12:07:28;;;;;;;2.40;1.03;;;;;;;15.63;100.00;94366.63;5030687;28;20206;-74
2022/05/13 12:10:13;;;;;;;1.10;1.10;;;;;;;15.56;100.00;94370.44;5029997;28;20202;-74
2022/05/13 12:12:57;;;;;;;1.63;1.10;;;;;;;15.84;100.00;94365.00;5023700;28;20569;-74
2022/05/13 12:16:02;;;;;;;2.13;1.33;;;;;;;16.11;100.00;94376.47;5010312;28;20213;-74
2022/05/13 12:19:01;;;;;;;1.20;1.10;;;;;;;15.76;100.00;94377.28;5002024;28;20333;-74
2022/05/13 12:21:59;;;;;;;1.33;1.07;;;;;;;16.08;100.00;94384.13;5022753;28;20283;-74
2022/05/13 12:25:00;;;;;;;4.63;1.40;;;;;;;15.85;100.00;94375.69;5010648;28;20217;-74
2022/05/13 12:28:01;;;;;;;6.30;1.60;;;;;;;16.20;100.00;94378.41;4996109;28;20750;-73
2022/05/13 12:30:49;;;;;;;1.73;1.63;;;;;;;16.17;100.00;94368.34;5026984;28;20573;-74
2022/05/13 12:33:36;;;;;;;3.20;1.70;;;;;;;16.01;100.00;94378.72;5019905;28;20265;-73
2022/05/13 12:39:46;;;;;;;2.33;1.60;;;;;;;16.04;100.00;94366.94;5014743;28;20254;-73
2022/05/13 12:42:50;;;;;;;3.83;1.60;;;;;;;16.40;100.00;94373.94;5022130;28;20730;-73
2022/05/13 12:45:36;;;;;;;2.17;1.87;;;;;;;16.20;100.00;94378.41;5012059;28;20711;-73
2022/05/13 12:48:20;;;;;;;6.97;1.97;;;;;;;16.13;100.00;94371.69;5013378;28;20202;-72
2022/05/13 12:51:10;;;;;;;3.47;2.43;;;;;;;16.69;100.00;94370.63;4999738;28;20694;-72
2022/05/13 12:53:57;;;;;;;2.87;2.37;;;;;;;17.92;100.00;94362.34;5005124;28;20206;-70
2022/05/13 12:56:46;;;;;;;2.27;2.07;;;;;;;20.41;95.71;94376.81;5030141;28;20202;-70
2022/05/13 12:59:34;;;;;;;3.25;1.88;;;;;;;19.96;95.74;94359.19;5030088;28;20218;-70
2022/05/13 13:02:24;;;;;;;2.45;1.95;;;;;;;19.48;89.75;94369.88;4995405;28;21780;-70
2022/05/13 13:05:17;;;;;;;2.20;2.00;;;;;;;19.63;93.64;94366.28;5020693;28;20718;-70
2022/05/13 13:08:24;;;;;;;1.90;1.80;;;;;;;18.78;92.15;94364.44;5023255;28;20639;-70
2022/05/13 13:11:15;;;;;;;5.88;2.20;;;;;;;19.04;90.08;94364.97;5017057;28;20226;-69
2022/05/13 13:14:15;;;;;;;2.70;1.90;;;;;;;20.04;84.57;94362.41;5023813;28;20710;-69
2022/05/13 13:17:02;;;;;;;4.45;1.98;;;;;;;19.65;88.04;94362.81;5016528;28;20215;-69
2022/05/13 13:19:48;;;;;;;2.08;1.70;;;;;;;19.30;83.27;94374.72;5003274;28;20214;-69
2022/05/13 13:22:38;;;;;;;2.40;2.00;;;;;;;19.05;88.89;94357.91;5004991;28;20304;-70
2022/05/13 13:25:27;;;;;;;2.28;2.13;;;;;;;18.81;86.33;94363.94;5012773;28;20199;-69
2022/05/13 13:28:19;;;;;;;2.33;1.77;;;;;;;19.46;84.83;94366.94;5007537;28;20253;-70
2022/05/13 13:31:06;;;;;;;2.55;2.13;;;;;;;19.24;84.45;94365.91;5004963;28;20254;-70
2022/05/13 13:33:53;;;;;;;4.70;1.97;;;;;;;19.43;81.53;94356.84;5017987;28;20249;-70
2022/05/13 13:36:37;;;;;;;2.47;2.00;;;;;;;19.82;79.86;94353.63;5013789;28;20209;-70
2022/05/13 13:39:26;;;;;;;3.10;2.20;;;;;;;19.28;83.70;94361.16;5026232;28;20202;-69
2022/05/13 13:42:13;;;;;;;3.40;1.87;;;;;;;19.29;82.46;94364.72;5024129;28;20256;-69
2022/05/13 13:45:09;;;;;;;2.38;1.98;;;;;;;18.65;84.83;94357.44;5020605;28;20578;-69
2022/05/13 13:47:55;;;;;;;3.10;2.00;;;;;;;19.25;81.08;94356.03;5006302;28;20202;-69
2022/05/13 13:50:50;;;;;;;4.70;2.00;;;;;;;18.98;83.56;94346.28;4994196;28;20712;-69
2022/05/13 13:53:42;;;;;;;2.73;1.80;;;;;;;19.23;82.93;94341.72;5009998;28;20230;-69
2022/05/13 13:56:29;;;;;;;3.50;2.30;;;;;;;19.23;80.50;94341.72;5019129;28;20280;-69
2022/05/13 13:59:23;;;;;;;2.80;2.37;;;;;;;19.05;84.11;94338.03;5025561;28;20214;-69
2022/05/13 14:02:08;;;;;;;2.47;2.27;;;;;;;18.96;82.26;94342.59;5021602;28;20342;-69
2022/05/13 14:04:52;;;;;;;2.30;2.10;;;;;;;19.20;82.02;94332.34;5019628;28;20570;-69
2022/05/13 14:07:39;;;;;;;2.50;2.30;;;;;;;18.98;83.42;94334.19;5006150;28;20631;-69